Time;durP1;ratioP1;P1;durP2;ratioP2;P2;SDS_P1;SDS_P2;PMS_P1;PMS_P2;Temp;Humidity;BMP_temperature;BMP_pressure;BME280_temperature;BME280_humidity;BME280_pressure;Samples;Min_cycle;Max_cycle;Signal;HPM_P1;HPM_P2
2022/05/19 00:01:54;;;;;;;1.38;1.05;;;21.10;99.90;;;;;;7390542;19;20459;-77
2022/05/19 00:04:20;;;;;;;2.42;1.20;;;21.20;99.70;;;;;;7392027;19;20158;-77
2022/05/19 00:06:46;;;;;;;1.65;1.23;;;21.30;99.10;;;;;;7389636;19;20138;-76
2022/05/19 00:09:12;;;;;;;2.80;1.20;;;21.10;99.00;;;;;;7403705;19;20138;-76
2022/05/19 00:11:39;;;;;;;2.35;1.35;;;20.60;99.20;;;;;;7390099;19;20123;-76
2022/05/19 00:14:05;;;;;;;2.17;1.20;;;20.50;99.60;;;;;;7389949;19;20176;-77
2022/05/19 00:16:32;;;;;;;1.92;1.10;;;20.50;99.70;;;;;;7388879;19;20131;-77
2022/05/19 00:18:59;;;;;;;2.10;1.08;;;20.60;99.90;;;;;;7389004;19;20607;-78
2022/05/19 00:21:25;;;;;;;1.23;1.13;;;20.60;99.90;;;;;;7389089;19;20144;-76
2022/05/19 00:23:51;;;;;;;1.65;1.25;;;20.60;99.40;;;;;;7394369;19;20151;-76
2022/05/19 00:26:17;;;;;;;2.60;1.30;;;20.40;99.70;;;;;;7390842;19;20624;-76
2022/05/19 00:28:43;;;;;;;2.53;1.20;;;20.30;99.90;;;;;;7389286;19;20147;-76
2022/05/19 00:31:09;;;;;;;1.58;1.23;;;20.40;99.90;;;;;;7396038;19;20141;-75
2022/05/19 00:33:34;;;;;;;1.20;1.10;;;20.60;99.90;;;;;;7390375;19;20134;-77
2022/05/19 00:36:09;;;;;;;1.92;1.25;;;20.80;99.80;;;;;;7389453;19;20517;-76
2022/05/19 00:38:35;;;;;;;2.10;1.55;;;20.90;99.60;;;;;;7389294;19;20133;-77
2022/05/19 00:41:01;;;;;;;2.70;1.40;;;21.10;99.60;;;;;;7390262;19;20158;-76
2022/05/19 00:43:35;;;;;;;1.80;1.30;;;21.20;99.70;;;;;;7392414;19;20264;-75
2022/05/19 00:46:14;;;;;;;2.53;1.35;;;21.20;99.90;;;;;;7393330;19;20356;-76
2022/05/19 00:48:50;;;;;;;2.50;1.33;;;20.80;99.80;;;;;;7390750;19;20127;-76
2022/05/19 00:51:18;;;;;;;2.13;1.20;;;20.50;99.90;;;;;;7391811;19;20119;-77
2022/05/19 00:53:51;;;;;;;2.25;1.35;;;20.60;99.90;;;;;;7396984;19;20133;-76
2022/05/19 00:56:34;;;;;;;1.25;1.00;;;20.60;99.90;;;;;;7391249;19;20166;-76
2022/05/19 00:59:19;;;;;;;2.47;1.70;;;20.60;99.90;;;;;;7393308;19;20520;-76
2022/05/19 01:01:45;;;;;;;2.67;1.30;;;20.80;99.90;;;;;;7387552;19;20134;-77
2022/05/19 01:04:29;;;;;;;1.83;1.48;;;20.60;99.90;;;;;;7388076;19;20678;-76
2022/05/19 01:07:00;;;;;;;2.20;1.20;;;20.30;99.90;;;;;;7387863;19;20127;-76
2022/05/19 01:09:27;;;;;;;2.75;1.30;;;20.10;99.90;;;;;;7390871;19;20179;-76
2022/05/19 01:11:55;;;;;;;2.08;1.25;;;20.20;99.90;;;;;;7387802;19;20160;-77
2022/05/19 01:14:22;;;;;;;2.55;1.52;;;20.30;99.90;;;;;;7391927;19;20613;-77
2022/05/19 01:16:48;;;;;;;2.85;1.40;;;20.40;99.90;;;;;;7398260;19;20137;-77
2022/05/19 01:19:28;;;;;;;1.48;1.33;;;20.50;99.90;;;;;;7399440;19;20177;-77
2022/05/19 01:22:01;;;;;;;2.38;1.45;;;20.60;99.90;;;;;;7395233;19;20133;-76
2022/05/19 01:24:40;;;;;;;1.58;1.48;;;20.60;99.90;;;;;;7392835;19;20142;-77
2022/05/19 01:27:06;;;;;;;2.58;1.52;;;20.60;99.90;;;;;;7396397;19;20134;-76
2022/05/19 01:29:32;;;;;;;2.70;1.88;;;20.30;99.90;;;;;;7395197;19;20126;-76
2022/05/19 01:32:02;;;;;;;2.33;1.50;;;20.40;99.90;;;;;;7396710;19;20141;-76
2022/05/19 01:34:31;;;;;;;3.13;1.70;;;20.40;99.90;;;;;;7394703;19;20159;-75
2022/05/19 01:36:57;;;;;;;4.15;1.38;;;20.40;99.90;;;;;;7394906;19;20630;-76
2022/05/19 01:39:26;;;;;;;2.17;1.50;;;20.50;99.90;;;;;;7399584;19;20142;-76
2022/05/19 01:42:43;;;;;;;1.73;1.38;;;20.40;99.90;;;;;;7394421;19;20166;-76
2022/05/19 01:45:35;;;;;;;1.40;1.30;;;20.40;99.90;;;;;;7392083;19;20130;-76
2022/05/19 01:48:06;;;;;;;1.75;1.13;;;20.30;99.90;;;;;;7391427;19;20138;-76
2022/05/19 01:50:50;;;;;;;3.08;1.60;;;20.30;99.90;;;;;;7394600;19;20526;-76
2022/05/19 01:53:30;;;;;;;1.50;1.40;;;20.10;99.90;;;;;;7394281;19;20535;-76
2022/05/19 01:56:08;;;;;;;2.03;1.40;;;20.10;99.90;;;;;;7395213;19;20137;-75
2022/05/19 01:58:48;;;;;;;2.95;1.40;;;20.20;99.90;;;;;;7396337;19;20118;-75
2022/05/19 02:01:18;;;;;;;1.40;1.30;;;20.00;99.90;;;;;;7396219;19;20229;-76
2022/05/19 02:03:53;;;;;;;2.65;1.52;;;19.70;99.90;;;;;;7400503;19;20126;-76
2022/05/19 02:06:42;;;;;;;1.38;1.10;;;19.50;99.90;;;;;;7395512;19;20522;-77
2022/05/19 02:09:18;;;;;;;3.38;1.50;;;19.50;99.90;;;;;;7395117;19;20621;-77
2022/05/19 02:11:52;;;;;;;2.22;1.60;;;19.40;99.90;;;;;;7394968;19;20126;-76
2022/05/19 02:14:27;;;;;;;1.70;1.40;;;19.20;99.90;;;;;;7393903;19;20659;-77
2022/05/19 02:16:54;;;;;;;1.42;1.02;;;18.90;99.90;;;;;;7392476;19;20138;-75
2022/05/19 02:19:26;;;;;;;1.65;1.50;;;18.90;99.90;;;;;;7393224;19;20131;-76
2022/05/19 02:21:56;;;;;;;1.65;1.25;;;19.40;99.90;;;;;;7390946;19;20154;-76
2022/05/19 02:24:25;;;;;;;2.03;1.55;;;19.40;99.90;;;;;;7396604;19;20158;-75
2022/05/19 02:26:51;;;;;;;2.17;1.50;;;19.60;99.90;;;;;;7401741;19;20171;-75
2022/05/19 02:29:26;;;;;;;3.05;1.45;;;19.70;99.90;;;;;;7391958;19;20142;-75
2022/05/19 02:31:52;;;;;;;1.40;1.30;;;19.80;99.90;;;;;;7399362;19;20435;-76
2022/05/19 02:34:18;;;;;;;2.85;1.38;;;19.80;99.90;;;;;;7396327;19;20146;-76
2022/05/19 02:36:44;;;;;;;1.70;1.35;;;19.90;99.90;;;;;;7396793;19;20151;-76
2022/05/19 02:39:11;;;;;;;1.70;1.60;;;19.90;99.90;;;;;;7395023;19;20138;-77
2022/05/19 02:41:36;;;;;;;1.42;1.33;;;19.40;99.90;;;;;;7391885;19;20146;-76
2022/05/19 02:44:03;;;;;;;3.17;1.80;;;19.10;99.90;;;;;;7394765;19;20126;-76
2022/05/19 02:46:29;;;;;;;1.75;1.50;;;19.00;99.90;;;;;;7393287;19;20489;-76
2022/05/19 02:48:58;;;;;;;1.58;1.27;;;19.30;99.90;;;;;;7393443;19;20142;-75
2022/05/19 02:51:23;;;;;;;3.85;1.63;;;19.30;99.90;;;;;;7394514;19;20234;-75
2022/05/19 02:53:49;;;;;;;1.55;1.30;;;19.10;99.90;;;;;;7393894;19;20162;-77
2022/05/19 02:56:15;;;;;;;1.63;1.27;;;19.30;99.90;;;;;;7395788;19;20666;-77
2022/05/19 02:58:41;;;;;;;2.03;1.30;;;19.40;99.90;;;;;;7391993;19;20143;-76
2022/05/19 03:01:07;;;;;;;1.63;1.40;;;19.50;99.90;;;;;;7391124;19;20138;-77
2022/05/19 03:03:33;;;;;;;1.60;1.40;;;19.60;99.90;;;;;;7393693;19;20131;-76
2022/05/19 03:05:59;;;;;;;1.50;1.27;;;19.60;99.90;;;;;;7391356;19;20161;-77
2022/05/19 03:08:26;;;;;;;2.90;1.50;;;19.60;99.90;;;;;;7392877;19;20134;-75
2022/05/19 03:10:51;;;;;;;1.40;1.10;;;19.60;99.90;;;;;;7395490;19;20147;-75
2022/05/19 03:13:22;;;;;;;2.40;1.30;;;19.70;99.90;;;;;;7392861;19;20138;-76
2022/05/19 03:15:48;;;;;;;2.17;1.58;;;19.70;99.90;;;;;;7390967;19;20155;-76
2022/05/19 03:18:15;;;;;;;1.83;1.55;;;19.80;99.90;;;;;;7392249;19;20142;-76
2022/05/19 03:20:41;;;;;;;1.80;1.67;;;20.10;99.90;;;;;;7393475;19;20131;-76
2022/05/19 03:23:07;;;;;;;2.30;1.75;;;20.00;99.90;;;;;;7392129;19;20221;-76
2022/05/19 03:25:33;;;;;;;1.95;1.63;;;19.90;99.90;;;;;;7391105;19;20158;-75
2022/05/19 03:27:59;;;;;;;2.28;1.98;;;19.80;99.90;;;;;;7391887;19;20131;-76
2022/05/19 03:30:25;;;;;;;3.13;1.55;;;19.70;99.90;;;;;;7395980;19;20541;-74
2022/05/19 03:32:51;;;;;;;3.08;1.40;;;19.70;99.90;;;;;;7391842;19;20134;-77
2022/05/19 03:35:17;;;;;;;3.25;1.75;;;19.50;99.90;;;;;;7390601;19;20149;-76
2022/05/19 03:37:43;;;;;;;3.83;1.90;;;19.50;99.90;;;;;;7389505;19;20142;-76
2022/05/19 03:40:11;;;;;;;2.28;1.75;;;19.30;99.90;;;;;;7392278;19;20137;-76
2022/05/19 03:42:37;;;;;;;3.80;1.42;;;19.10;99.90;;;;;;7391971;19;20131;-76
2022/05/19 03:45:04;;;;;;;3.40;2.05;;;19.40;99.90;;;;;;7391908;19;20165;-77
2022/05/19 03:47:30;;;;;;;3.03;1.65;;;19.30;99.90;;;;;;7389921;19;20146;-77
2022/05/19 03:49:56;;;;;;;3.42;1.55;;;18.90;99.90;;;;;;7394113;19;20577;-76
2022/05/19 03:52:23;;;;;;;1.83;1.70;;;18.90;99.90;;;;;;7390701;19;20123;-75
2022/05/19 03:54:48;;;;;;;1.95;1.50;;;18.80;99.90;;;;;;7393879;19;20133;-75
2022/05/19 03:57:16;;;;;;;2.33;1.88;;;18.60;99.90;;;;;;7389636;19;20126;-75
2022/05/19 03:59:41;;;;;;;3.55;1.70;;;18.60;99.90;;;;;;7390644;19;20126;-75
2022/05/19 04:02:07;;;;;;;2.55;1.45;;;18.90;99.90;;;;;;7388153;19;20202;-76
2022/05/19 04:04:33;;;;;;;3.85;1.77;;;18.80;99.90;;;;;;7389270;19;20872;-76
2022/05/19 04:06:59;;;;;;;2.65;1.52;;;18.80;99.90;;;;;;7389137;19;20138;-76
2022/05/19 04:09:25;;;;;;;4.35;1.92;;;18.90;99.90;;;;;;7389922;19;20123;-76
2022/05/19 04:11:51;;;;;;;3.92;1.77;;;18.90;99.90;;;;;;7391178;19;20126;-76
2022/05/19 04:14:17;;;;;;;2.28;1.60;;;19.00;99.90;;;;;;7390744;19;20147;-75
2022/05/19 04:16:43;;;;;;;2.38;1.98;;;18.80;99.90;;;;;;7391658;19;20131;-75
2022/05/19 04:19:09;;;;;;;2.42;1.88;;;19.00;99.90;;;;;;7389097;19;20123;-76
2022/05/19 04:21:35;;;;;;;2.20;1.90;;;19.20;99.90;;;;;;7388328;19;20174;-76
2022/05/19 04:24:00;;;;;;;3.10;1.92;;;18.70;99.90;;;;;;7389027;19;20632;-76
2022/05/19 04:26:27;;;;;;;3.63;2.15;;;18.80;99.90;;;;;;7388324;19;20198;-76
2022/05/19 04:28:53;;;;;;;5.65;2.42;;;19.00;99.90;;;;;;7389964;19;20565;-76
2022/05/19 04:31:19;;;;;;;5.80;1.90;;;19.20;99.90;;;;;;7392917;19;20167;-76
2022/05/19 04:33:45;;;;;;;2.20;1.88;;;19.40;99.90;;;;;;7389361;19;20194;-76
2022/05/19 04:36:10;;;;;;;3.47;2.10;;;19.30;99.90;;;;;;7392920;19;20155;-75
2022/05/19 04:38:36;;;;;;;3.28;2.22;;;19.50;99.90;;;;;;7390297;19;20161;-77
2022/05/19 04:41:04;;;;;;;4.88;2.55;;;19.50;99.90;;;;;;7387474;19;20134;-77
2022/05/19 04:43:30;;;;;;;2.58;1.90;;;19.60;99.90;;;;;;7393681;19;20151;-76
2022/05/19 04:45:57;;;;;;;3.03;1.98;;;19.60;99.90;;;;;;7389169;19;20137;-76
2022/05/19 04:48:24;;;;;;;3.95;2.00;;;19.60;99.90;;;;;;7391334;19;20130;-77
2022/05/19 04:50:52;;;;;;;4.45;1.83;;;19.60;99.90;;;;;;7391463;19;20130;-76
2022/05/19 04:53:18;;;;;;;4.43;1.95;;;19.50;99.90;;;;;;7401365;19;20119;-77
2022/05/19 04:55:43;;;;;;;2.17;1.75;;;19.50;99.90;;;;;;7404208;19;20124;-76
2022/05/19 04:58:09;;;;;;;2.78;1.65;;;19.60;99.90;;;;;;7401498;19;20161;-76
2022/05/19 05:00:36;;;;;;;2.28;1.73;;;19.60;99.90;;;;;;7402272;19;20152;-76
2022/05/19 05:03:02;;;;;;;2.40;2.00;;;19.50;99.90;;;;;;7402428;19;20131;-77
2022/05/19 05:05:28;;;;;;;2.72;1.60;;;19.50;99.90;;;;;;7402664;19;20147;-77
2022/05/19 05:07:54;;;;;;;5.78;1.70;;;19.50;99.90;;;;;;7400974;19;20159;-75
2022/05/19 05:10:20;;;;;;;2.13;1.75;;;19.60;99.90;;;;;;7403590;19;20155;-77
2022/05/19 05:12:45;;;;;;;3.10;1.67;;;19.60;99.90;;;;;;7401485;19;20136;-76
2022/05/19 05:15:12;;;;;;;2.53;1.67;;;19.20;99.90;;;;;;7401923;19;20590;-77
2022/05/19 05:17:38;;;;;;;4.55;2.13;;;19.40;99.90;;;;;;7402321;19;20126;-77
2022/05/19 05:20:05;;;;;;;4.75;2.75;;;19.60;99.90;;;;;;7402752;19;20144;-75
2022/05/19 05:22:34;;;;;;;6.25;2.67;;;19.90;99.90;;;;;;7404539;19;20130;-75
2022/05/19 05:25:02;;;;;;;3.15;2.17;;;19.90;99.90;;;;;;7405712;19;20193;-77
2022/05/19 05:27:27;;;;;;;3.88;2.63;;;19.90;99.90;;;;;;7403341;19;20284;-77
2022/05/19 05:29:53;;;;;;;4.10;2.42;;;19.90;99.90;;;;;;7400596;19;20126;-76
2022/05/19 05:32:19;;;;;;;5.53;2.58;;;19.90;99.90;;;;;;7402030;19;20142;-76
2022/05/19 05:34:45;;;;;;;3.38;2.33;;;19.70;99.90;;;;;;7404278;19;20154;-77
2022/05/19 05:37:10;;;;;;;4.43;2.67;;;19.70;99.90;;;;;;7402126;19;20130;-74
2022/05/19 05:39:36;;;;;;;2.78;2.38;;;19.60;99.90;;;;;;7396848;19;20146;-74
2022/05/19 05:42:04;;;;;;;4.32;2.42;;;19.30;99.90;;;;;;7399339;19;20171;-75
2022/05/19 05:44:29;;;;;;;2.58;2.00;;;19.40;99.90;;;;;;7400482;19;20142;-74
2022/05/19 05:46:55;;;;;;;4.03;2.40;;;19.60;99.90;;;;;;7403746;19;20617;-76
2022/05/19 05:49:21;;;;;;;2.15;1.92;;;19.40;99.90;;;;;;7400039;19;20150;-77
2022/05/19 05:51:48;;;;;;;6.10;3.72;;;19.50;99.90;;;;;;7401989;19;20176;-75
2022/05/19 05:54:14;;;;;;;6.18;2.60;;;19.70;99.90;;;;;;7403468;19;20244;-76
2022/05/19 05:56:40;;;;;;;4.40;2.30;;;19.90;99.90;;;;;;7399722;19;20598;-73
2022/05/19 05:59:06;;;;;;;6.32;2.60;;;20.10;99.90;;;;;;7402188;19;20135;-75
2022/05/19 06:01:32;;;;;;;3.40;2.13;;;20.20;99.90;;;;;;7404101;19;20590;-75
2022/05/19 06:03:58;;;;;;;4.10;1.77;;;20.00;99.90;;;;;;7395127;19;20133;-75
2022/05/19 06:06:25;;;;;;;2.85;1.85;;;20.10;99.90;;;;;;7393865;19;20127;-75
2022/05/19 06:08:51;;;;;;;2.45;1.65;;;20.20;99.90;;;;;;7395009;19;20647;-75
2022/05/19 06:11:17;;;;;;;1.90;1.70;;;20.00;99.90;;;;;;7398744;19;20564;-77
2022/05/19 06:13:44;;;;;;;3.15;1.65;;;20.20;99.90;;;;;;7393277;19;20658;-75
2022/05/19 06:16:10;;;;;;;1.63;1.30;;;20.50;99.90;;;;;;7391267;19;20149;-74
2022/05/19 06:18:36;;;;;;;2.22;1.45;;;21.00;99.90;;;;;;7394410;19;20134;-75
2022/05/19 06:21:03;;;;;;;1.98;1.38;;;22.20;99.90;;;;;;7393231;19;20131;-72
2022/05/19 06:23:29;;;;;;;3.70;2.53;;;23.70;99.90;;;;;;7390060;19;20464;-75
2022/05/19 06:25:55;;;;;;;3.67;2.65;;;24.90;98.10;;;;;;7392271;19;20135;-76
2022/05/19 06:28:21;;;;;;;3.53;2.35;;;25.90;96.70;;;;;;7392208;19;20197;-74
2022/05/19 06:30:47;;;;;;;2.13;1.65;;;26.70;95.10;;;;;;7396221;19;20142;-76
2022/05/19 06:33:17;;;;;;;2.50;1.80;;;27.00;93.70;;;;;;7395880;19;20146;-77
2022/05/19 06:35:44;;;;;;;3.47;1.50;;;27.20;93.30;;;;;;7392434;19;20127;-76
2022/05/19 06:38:10;;;;;;;2.88;1.77;;;27.70;92.60;;;;;;7391775;19;20582;-76
2022/05/19 06:40:36;;;;;;;2.85;1.50;;;27.90;92.20;;;;;;7395531;19;20218;-75
2022/05/19 06:43:09;;;;;;;2.55;1.67;;;28.20;91.90;;;;;;7389100;19;20170;-77
2022/05/19 06:45:35;;;;;;;1.30;1.10;;;28.50;91.50;;;;;;7394279;19;20194;-76
2022/05/19 06:48:02;;;;;;;3.30;1.58;;;27.80;91.90;;;;;;7391992;19;20135;-75
2022/05/19 06:50:28;;;;;;;6.32;1.42;;;28.20;91.40;;;;;;7401768;19;20134;-76
2022/05/19 06:53:00;;;;;;;3.45;1.70;;;28.00;91.20;;;;;;7392504;19;20139;-75
2022/05/19 06:55:27;;;;;;;3.53;1.52;;;28.50;91.20;;;;;;7391437;19;20569;-75
2022/05/19 06:57:54;;;;;;;3.58;1.70;;;28.50;90.50;;;;;;7392840;19;20470;-75
2022/05/19 07:00:21;;;;;;;3.63;1.48;;;28.30;90.60;;;;;;7390645;19;20139;-77
2022/05/19 07:02:50;;;;;;;5.00;3.83;;;28.40;90.30;;;;;;7392547;19;20235;-76
2022/05/19 07:05:21;;;;;;;2.22;1.60;;;28.10;90.90;;;;;;7391042;19;20139;-76
2022/05/19 07:07:47;;;;;;;1.83;1.50;;;28.20;90.60;;;;;;7391303;19;20127;-74
2022/05/19 07:10:16;;;;;;;4.60;1.40;;;28.40;90.70;;;;;;7391500;19;20134;-74
2022/05/19 07:12:45;;;;;;;2.97;1.42;;;28.40;90.30;;;;;;7401331;19;20458;-75
2022/05/19 07:15:14;;;;;;;5.88;1.67;;;28.50;90.20;;;;;;7393507;19;20605;-75
2022/05/19 07:17:42;;;;;;;2.58;1.70;;;28.30;90.70;;;;;;7390076;19;20143;-74
2022/05/19 07:22:56;;;;;;;2.72;1.90;;;28.80;90.50;;;;;;7390229;19;20146;-77
2022/05/19 07:25:22;;;;;;;2.47;1.50;;;28.80;90.30;;;;;;7390687;19;20131;-77
2022/05/19 07:27:48;;;;;;;3.92;1.60;;;28.90;90.40;;;;;;7390485;19;20155;-75
2022/05/19 07:30:15;;;;;;;2.58;1.48;;;28.90;90.40;;;;;;7391383;19;20135;-76
2022/05/19 07:32:42;;;;;;;6.25;3.40;;;28.80;90.00;;;;;;7392612;19;20146;-74
2022/05/19 07:35:10;;;;;;;4.40;2.90;;;28.50;90.30;;;;;;7390238;19;20154;-75
2022/05/19 07:37:36;;;;;;;4.25;1.52;;;28.70;89.80;;;;;;7393363;19;20142;-74
2022/05/19 07:40:04;;;;;;;1.40;1.30;;;28.80;89.60;;;;;;7398283;19;20159;-78
2022/05/19 07:42:30;;;;;;;2.38;1.40;;;28.90;89.20;;;;;;7389698;19;20169;-75
2022/05/19 07:44:56;;;;;;;1.48;1.23;;;29.00;89.40;;;;;;7389897;19;20130;-75
2022/05/19 07:47:22;;;;;;;2.55;1.40;;;29.10;88.70;;;;;;7389282;19;20541;-74
2022/05/19 07:49:54;;;;;;;3.35;1.40;;;28.80;89.10;;;;;;7393269;19;20243;-75
2022/05/19 07:52:24;;;;;;;2.30;1.40;;;29.00;89.20;;;;;;7393244;19;20146;-76
2022/05/19 07:54:50;;;;;;;2.25;1.63;;;29.40;88.90;;;;;;7391931;19;20150;-74
2022/05/19 07:57:18;;;;;;;1.98;1.40;;;29.50;87.60;;;;;;7388181;19;20131;-77
2022/05/19 07:59:44;;;;;;;1.92;1.55;;;29.50;88.10;;;;;;7390765;19;20138;-77
2022/05/19 08:02:10;;;;;;;1.92;1.42;;;29.80;88.20;;;;;;7390846;19;20463;-75
2022/05/19 08:04:35;;;;;;;2.45;1.45;;;29.80;87.40;;;;;;7398395;19;20199;-75
2022/05/19 08:07:01;;;;;;;2.00;1.40;;;29.90;87.40;;;;;;7390171;19;20146;-77
2022/05/19 08:12:17;;;;;;;2.15;1.65;;;29.80;88.30;;;;;;7390072;19;20139;-77
2022/05/19 08:17:27;;;;;;;4.50;3.40;;;30.30;87.40;;;;;;7390322;19;20150;-75
2022/05/19 08:19:53;;;;;;;1.80;1.65;;;30.60;86.90;;;;;;7390635;19;20506;-76
2022/05/19 08:22:19;;;;;;;3.08;1.80;;;30.70;86.30;;;;;;7389348;19;20140;-76
2022/05/19 08:24:49;;;;;;;2.75;1.50;;;30.80;86.00;;;;;;7392656;19;20130;-77
2022/05/19 08:27:15;;;;;;;2.58;1.77;;;30.50;86.10;;;;;;7396175;19;20452;-77
2022/05/19 08:29:40;;;;;;;3.15;1.67;;;30.20;87.80;;;;;;7390172;19;20152;-76
2022/05/19 08:32:06;;;;;;;1.55;1.40;;;30.10;88.30;;;;;;7390047;19;20210;-77
2022/05/19 08:34:33;;;;;;;2.30;1.80;;;30.10;88.10;;;;;;7388754;19;20143;-77
2022/05/19 08:36:58;;;;;;;4.35;3.95;;;30.60;86.80;;;;;;7389138;19;20158;-77
2022/05/19 08:39:25;;;;;;;2.78;1.98;;;30.20;86.60;;;;;;7391066;19;20165;-77
2022/05/19 08:42:13;;;;;;;2.08;1.70;;;30.40;87.20;;;;;;7387448;19;20141;-76
2022/05/19 08:44:48;;;;;;;1.67;1.58;;;30.40;87.70;;;;;;7388055;19;20221;-75
2022/05/19 08:47:20;;;;;;;3.58;2.10;;;30.40;87.40;;;;;;7389358;19;20134;-77
2022/05/19 08:49:48;;;;;;;2.03;1.58;;;30.30;88.30;;;;;;7396184;19;20484;-75
2022/05/19 08:52:17;;;;;;;2.13;1.60;;;29.90;87.80;;;;;;7389944;19;20153;-78
2022/05/19 08:54:45;;;;;;;3.28;1.58;;;29.80;88.70;;;;;;7389831;19;20570;-75
2022/05/19 08:57:26;;;;;;;1.40;1.30;;;29.80;88.20;;;;;;7387929;19;20214;-77
2022/05/19 09:00:05;;;;;;;2.28;1.90;;;29.90;90.00;;;;;;7389938;19;20209;-78
2022/05/19 09:02:46;;;;;;;1.73;1.52;;;29.90;89.20;;;;;;7388846;19;20169;-76
2022/05/19 09:05:38;;;;;;;2.95;1.50;;;29.80;89.40;;;;;;7387909;19;20464;-75
2022/05/19 09:08:28;;;;;;;1.90;1.42;;;29.60;88.50;;;;;;7388929;19;20130;-76
2022/05/19 09:11:10;;;;;;;1.88;1.70;;;29.40;90.10;;;;;;7388435;19;20133;-76
2022/05/19 09:13:53;;;;;;;1.90;1.70;;;29.30;90.40;;;;;;7392514;19;20486;-76
2022/05/19 09:16:28;;;;;;;2.47;1.90;;;29.10;89.80;;;;;;7394735;19;20555;-77
2022/05/19 09:19:06;;;;;;;2.40;1.88;;;28.70;90.30;;;;;;7390035;19;20134;-77
2022/05/19 09:21:34;;;;;;;2.00;1.77;;;28.30;90.60;;;;;;7387813;19;20217;-75
2022/05/19 09:24:00;;;;;;;1.55;1.45;;;28.10;91.50;;;;;;7388687;19;20174;-74
2022/05/19 09:26:45;;;;;;;2.67;1.80;;;28.10;91.10;;;;;;7387348;19;20479;-75
2022/05/19 09:29:15;;;;;;;3.78;1.80;;;28.10;91.20;;;;;;7389308;19;20126;-76
2022/05/19 09:31:46;;;;;;;2.65;1.95;;;28.10;91.50;;;;;;7394504;19;20205;-76
2022/05/19 09:34:13;;;;;;;2.45;1.70;;;28.30;91.30;;;;;;7392235;19;20139;-75
2022/05/19 09:36:52;;;;;;;3.00;1.70;;;28.40;91.10;;;;;;7393276;19;20130;-75
2022/05/19 09:39:19;;;;;;;1.70;1.60;;;28.20;91.10;;;;;;7395315;19;20467;-76
2022/05/19 09:41:51;;;;;;;2.50;1.67;;;28.20;91.20;;;;;;7393945;19;20151;-77
2022/05/19 09:44:27;;;;;;;2.80;1.85;;;28.40;91.30;;;;;;7395442;19;20587;-76
2022/05/19 09:46:54;;;;;;;4.53;2.80;;;28.30;91.80;;;;;;7394117;19;20131;-77
2022/05/19 09:49:31;;;;;;;6.47;2.88;;;28.40;92.30;;;;;;7399125;19;20139;-77
2022/05/19 09:52:04;;;;;;;2.47;1.90;;;28.50;92.10;;;;;;7392913;19;20129;-76
2022/05/19 09:54:32;;;;;;;3.15;1.80;;;28.40;92.10;;;;;;7397088;19;20484;-76
2022/05/19 09:57:22;;;;;;;3.20;2.50;;;28.40;92.40;;;;;;7398824;19;20138;-75
2022/05/19 09:59:51;;;;;;;2.53;2.00;;;28.50;92.30;;;;;;7403557;19;20138;-76
2022/05/19 10:02:38;;;;;;;5.22;2.00;;;28.80;92.40;;;;;;7392790;19;20137;-77
2022/05/19 10:05:25;;;;;;;5.30;2.10;;;28.90;91.90;;;;;;7396423;19;20223;-77
2022/05/19 10:07:57;;;;;;;3.97;1.90;;;28.90;92.00;;;;;;7394710;19;20163;-76
2022/05/19 10:10:27;;;;;;;2.70;1.95;;;28.70;92.40;;;;;;7395921;19;20135;-75
2022/05/19 10:12:59;;;;;;;2.50;1.98;;;28.50;92.50;;;;;;7393658;19;20157;-76
2022/05/19 10:15:33;;;;;;;2.65;2.08;;;28.40;92.60;;;;;;7394989;19;20156;-75
2022/05/19 10:18:05;;;;;;;3.72;1.88;;;28.20;92.90;;;;;;7392859;19;20164;-76
2022/05/19 10:20:43;;;;;;;2.58;1.85;;;28.20;93.20;;;;;;7395949;19;20143;-76
2022/05/19 10:23:34;;;;;;;4.00;2.20;;;28.60;93.10;;;;;;7397632;19;20138;-76
2022/05/19 10:26:38;;;;;;;2.35;2.03;;;28.80;92.80;;;;;;7394714;19;20135;-76
2022/05/19 10:32:12;;;;;;;2.80;1.90;;;28.80;92.60;;;;;;7394650;19;20131;-78
2022/05/19 10:34:44;;;;;;;2.60;2.08;;;28.80;92.70;;;;;;7394873;19;20190;-77
2022/05/19 10:37:35;;;;;;;3.35;1.80;;;28.80;92.60;;;;;;7394809;19;20130;-78
2022/05/19 10:40:35;;;;;;;3.22;2.30;;;28.80;92.50;;;;;;7394954;19;20155;-76
2022/05/19 10:43:25;;;;;;;2.90;2.00;;;28.80;92.60;;;;;;7392847;19;20147;-76
2022/05/19 10:45:54;;;;;;;1.88;1.77;;;28.70;92.70;;;;;;7399020;19;20141;-76
2022/05/19 10:48:47;;;;;;;3.30;2.22;;;28.70;92.90;;;;;;7400934;19;20184;-76
2022/05/19 10:51:22;;;;;;;3.47;2.03;;;28.80;92.70;;;;;;7393650;19;20138;-76
2022/05/19 10:54:19;;;;;;;3.03;2.08;;;28.70;92.90;;;;;;7393862;19;20145;-77
2022/05/19 10:57:03;;;;;;;2.30;1.90;;;28.80;92.50;;;;;;7392460;19;20147;-76
2022/05/19 10:59:48;;;;;;;2.38;2.17;;;28.70;92.60;;;;;;7392518;19;20130;-77
2022/05/19 11:02:26;;;;;;;3.45;3.00;;;28.70;93.10;;;;;;7391931;19;20586;-77
2022/05/19 11:05:07;;;;;;;5.80;2.67;;;28.80;92.80;;;;;;7390638;19;20146;-76
2022/05/19 11:07:56;;;;;;;3.63;2.13;;;28.80;92.60;;;;;;7393227;19;20134;-76
2022/05/19 11:10:59;;;;;;;3.75;2.08;;;28.70;92.90;;;;;;7393198;19;20211;-76
2022/05/19 11:13:27;;;;;;;2.92;2.28;;;28.70;92.80;;;;;;7397684;19;20210;-77
2022/05/19 11:16:18;;;;;;;2.90;1.92;;;28.70;92.30;;;;;;7392353;19;20142;-76
2022/05/19 11:18:58;;;;;;;2.42;1.80;;;28.80;92.60;;;;;;7391444;19;20142;-80
2022/05/19 11:21:44;;;;;;;2.45;1.90;;;29.10;92.80;;;;;;7393559;19;20131;-76
2022/05/19 11:26:23;;;;;;;3.38;2.28;;;29.30;92.30;;;;;;7391242;19;20230;-77
2022/05/19 11:27:30;;;;;;;2.20;2.00;;;29.30;92.20;;;;;;7392247;19;20208;-76
2022/05/19 11:30:04;;;;;;;2.30;2.00;;;29.50;91.90;;;;;;7392921;19;20139;-82
2022/05/19 11:32:35;;;;;;;2.92;1.85;;;29.60;91.80;;;;;;7390472;19;20137;-77
2022/05/19 11:35:36;;;;;;;3.10;2.10;;;29.60;91.60;;;;;;7397526;19;20527;-77
2022/05/19 11:38:20;;;;;;;4.03;1.80;;;29.50;91.90;;;;;;7392705;19;20149;-77
2022/05/19 11:41:14;;;;;;;3.15;2.03;;;29.60;91.70;;;;;;7390893;19;20612;-79
2022/05/19 11:43:44;;;;;;;4.93;2.28;;;29.70;91.50;;;;;;7393778;19;20157;-78
2022/05/19 11:46:25;;;;;;;2.78;2.10;;;29.80;91.50;;;;;;7392057;19;20135;-75
2022/05/19 11:55:12;;;;;;;2.47;2.10;;;29.80;91.40;;;;;;7391540;19;20135;-77
2022/05/19 11:55:27;;;;;;;4.82;3.45;;;29.70;91.60;;;;;;7394542;19;20130;-77
2022/05/19 11:58:00;;;;;;;2.78;2.25;;;29.70;91.30;;;;;;7391509;19;20143;-77
2022/05/19 12:00:47;;;;;;;3.83;2.40;;;29.60;91.50;;;;;;7390173;19;20138;-77
2022/05/19 12:03:23;;;;;;;2.88;1.90;;;29.70;91.40;;;;;;7387682;19;20170;-76
2022/05/19 12:06:00;;;;;;;2.80;2.10;;;29.80;91.50;;;;;;7389939;19;20223;-77
2022/05/19 12:08:36;;;;;;;5.22;2.00;;;29.80;91.60;;;;;;7389742;19;20149;-78
2022/05/19 12:11:23;;;;;;;3.55;2.30;;;29.90;91.50;;;;;;7389274;19;20209;-77
2022/05/19 12:14:06;;;;;;;3.25;2.30;;;30.00;91.30;;;;;;7392023;19;20141;-77
2022/05/19 12:16:45;;;;;;;3.17;2.00;;;30.00;91.50;;;;;;7396528;19;20146;-76
2022/05/19 12:19:31;;;;;;;2.47;2.00;;;30.00;91.50;;;;;;7396784;19;20150;-78
2022/05/19 12:21:56;;;;;;;4.78;2.28;;;30.10;91.50;;;;;;7389749;19;20154;-78
2022/05/19 12:24:37;;;;;;;2.85;2.00;;;30.00;91.90;;;;;;7394737;19;20227;-77
2022/05/19 12:27:49;;;;;;;2.58;2.10;;;30.10;92.00;;;;;;7392224;19;20162;-79
2022/05/19 12:33:25;;;;;;;2.90;2.50;;;30.10;91.40;;;;;;7389565;19;20168;-76
2022/05/19 12:36:05;;;;;;;2.50;2.20;;;30.00;91.20;;;;;;7388826;19;20134;-78
2022/05/19 12:38:40;;;;;;;3.58;2.20;;;30.10;91.40;;;;;;7387875;19;20122;-77
2022/05/19 12:41:09;;;;;;;2.05;1.85;;;30.00;91.40;;;;;;7394777;19;20147;-78
2022/05/19 12:43:38;;;;;;;2.90;2.38;;;29.80;91.80;;;;;;7392497;19;20149;-76
2022/05/19 12:46:07;;;;;;;2.58;2.20;;;29.70;91.80;;;;;;7389926;19;20133;-78
2022/05/19 12:48:33;;;;;;;4.10;2.20;;;29.70;91.70;;;;;;7390653;19;20145;-79
2022/05/19 12:51:16;;;;;;;2.65;2.17;;;29.80;91.70;;;;;;7390604;19;20122;-78
2022/05/19 12:53:51;;;;;;;2.88;2.03;;;29.80;91.90;;;;;;7390215;19;20484;-77
2022/05/19 12:56:41;;;;;;;2.90;2.20;;;29.70;92.00;;;;;;7390267;19;20457;-76
2022/05/19 12:59:26;;;;;;;2.20;2.00;;;29.80;92.00;;;;;;7388919;19;20134;-75
2022/05/19 13:02:04;;;;;;;3.35;2.15;;;29.90;92.00;;;;;;7388860;19;20166;-77
2022/05/19 13:04:29;;;;;;;3.60;2.42;;;29.90;92.00;;;;;;7395066;19;20122;-76
2022/05/19 13:07:09;;;;;;;5.25;3.72;;;30.00;91.90;;;;;;7389046;19;20578;-77
2022/05/19 13:09:35;;;;;;;3.78;2.65;;;29.90;92.00;;;;;;7388389;19;20492;-76
2022/05/19 13:12:11;;;;;;;3.58;2.30;;;29.90;91.90;;;;;;7389496;19;20178;-77
2022/05/19 13:14:43;;;;;;;3.20;2.33;;;29.90;92.00;;;;;;7395129;19;20468;-77
2022/05/19 13:17:24;;;;;;;2.30;2.10;;;29.90;91.90;;;;;;7395980;19;20130;-77
2022/05/19 13:19:50;;;;;;;2.50;2.30;;;29.90;91.60;;;;;;7394889;19;20143;-78
2022/05/19 13:22:23;;;;;;;5.32;2.13;;;29.90;91.90;;;;;;7394167;19;20150;-78
2022/05/19 13:24:49;;;;;;;2.65;2.05;;;30.00;91.70;;;;;;7397733;19;20131;-77
2022/05/19 13:30:40;;;;;;;2.55;2.13;;;29.90;92.20;;;;;;7397602;19;20134;-78
2022/05/19 13:33:09;;;;;;;2.35;2.15;;;30.00;91.70;;;;;;7395508;19;20138;-77